KSSF - San Antonio/Stinson, TX, US

Issued at 1307 UTC 20 Oct 2021
Updated at 1335 UTC 20 Oct 2021
Potential Impact None Slight Moderate High
Time1253Z 20/14Z 20/15Z 20/16Z 20/17Z 20/18Z 20/19Z 20/20Z 20/21Z 20/22Z 20/23Z 21/00Z 21/01Z 21/02Z>>
Type OBS PRVL PRVL PRVL PRVL PRVL PRVL PRVL PRVL PRVL PRVL PRVL PRVL PRVL
VIS 10 >6 >6 >6 >6 >6 >6 >6 >6 >6 >6 >6 >6 >6
CIG -- -- -- -- -- -- -- -- -- -- -- -- -- --
Cover CLR SCT SCT SCT SCT SCT SCT SCT SCT SCT SCT SCT SCT SCT
FltCat VFR VFR VFR VFR VFR VFR VFR VFR VFR VFR VFR VFR VFR VFR
WX -- -- -- -- -- -- -- -- -- -- -- -- -- --
WDir 70 100 100 100 140 140 140 140 140 140 140 140 140 140
WSpd 4 3 3 3 5 5 5 5 5 5 5 5 5 5
WGst -- -- -- -- -- -- -- -- -- -- -- -- -- --
Raw TAF
KSSF 201307Z 2013/2112 10003KT P6SM SCT015 SCT040
  FM201700 14005KT P6SM SCT040
  FM211000 VRB02KT 5SM BR FEW015


Raw METAR
KSSF 201253Z 07004KT 10SM CLR 21/19 A3005
KSSF 201153Z 09004KT 10SM BKN031 22/19 A3004

METAR Board
Radar Display
Forecast Discussion
For situational awareness. Not to be used for flight planning purposes.